createdAt,value
2018-12-31T00:00:38.746Z,102002.87
2018-12-31T00:03:26.276Z,101995.98
2018-12-31T00:06:13.836Z,101995.55
2018-12-31T00:09:02.358Z,101999.16
2018-12-31T00:12:00.240Z,102000.72
2018-12-31T00:14:47.938Z,102000.83
2018-12-31T00:17:39.147Z,102006.58
2018-12-31T00:20:26.638Z,102009.28
2018-12-31T00:23:14.432Z,102003.58
2018-12-31T00:26:03.933Z,102002.28
2018-12-31T00:28:51.355Z,102011.95
2018-12-31T00:31:38.750Z,102020.33
2018-12-31T00:34:26.177Z,102029.63
2018-12-31T00:37:13.707Z,102021.01
2018-12-31T00:40:02.493Z,102010.97
2018-12-31T00:42:48.982Z,102006.20
2018-12-31T00:45:37.889Z,102015.91
2018-12-31T00:48:26.232Z,102015.07
2018-12-31T00:51:13.918Z,102018.19
2018-12-31T00:54:00.978Z,102020.45
2018-12-31T00:56:48.180Z,102017.39
2018-12-31T00:59:35.494Z,102012.13
2018-12-31T01:02:22.859Z,102010.83
2018-12-31T01:05:10.384Z,102014.34
2018-12-31T01:07:58.630Z,102019.16
2018-12-31T01:10:46.044Z,102023.55
2018-12-31T01:13:33.488Z,102024.89
2018-12-31T01:16:26.496Z,102032.36
2018-12-31T01:19:13.979Z,102033.69
2018-12-31T01:22:09.640Z,102034.56
2018-12-31T01:24:56.589Z,102035.02
2018-12-31T01:27:43.651Z,102036.74
2018-12-31T01:30:30.620Z,102041.13
2018-12-31T01:33:30.753Z,102031.45
2018-12-31T01:36:36.386Z,102038.47
2018-12-31T01:39:40.225Z,102040.69
2018-12-31T01:42:30.123Z,102035.41
2018-12-31T01:45:17.268Z,102033.60
2018-12-31T01:48:04.601Z,102036.23
2018-12-31T01:50:52.121Z,102033.62
2018-12-31T01:53:39.557Z,102029.22
2018-12-31T01:56:26.850Z,102034.92
2018-12-31T01:59:16.659Z,102021.30
2018-12-31T02:02:06.609Z,102027.47
2018-12-31T02:05:00.679Z,102023.97
2018-12-31T02:07:54.065Z,102044.72
2018-12-31T02:10:50.579Z,102046.05
2018-12-31T02:13:41.298Z,102050.09
2018-12-31T02:16:28.639Z,102044.05
2018-12-31T02:19:17.687Z,102030.56
2018-12-31T02:22:06.885Z,102035.94
2018-12-31T02:24:57.045Z,102046.31
2018-12-31T02:27:45.600Z,102057.57
2018-12-31T02:30:34.707Z,102051.97
2018-12-31T02:33:22.909Z,102053.22
2018-12-31T02:36:24.138Z,102057.83
2018-12-31T02:39:12.845Z,102060.87
2018-12-31T02:42:00.396Z,102063.77
2018-12-31T02:44:47.387Z,102062.65
2018-12-31T02:47:36.910Z,102068.44
2018-12-31T02:50:29.308Z,102055.80
2018-12-31T02:53:17.775Z,102055.40
2018-12-31T02:56:07.001Z,102065.09
2018-12-31T02:58:58.594Z,102065.16
2018-12-31T03:01:50.388Z,102057.26
2018-12-31T03:04:39.623Z,102055.09
2018-12-31T03:07:29.872Z,102048.45
2018-12-31T03:10:19.240Z,102042.86
2018-12-31T03:13:07.169Z,102048.78
2018-12-31T03:15:54.413Z,102048.39
2018-12-31T03:18:41.514Z,102046.72
2018-12-31T03:24:02.675Z,102054.74
2018-12-31T03:26:51.845Z,102057.33
2018-12-31T03:29:39.638Z,102053.59
2018-12-31T03:32:26.618Z,102051.67
2018-12-31T03:35:15.116Z,102057.07
2018-12-31T03:38:02.662Z,102065.92
2018-12-31T03:40:50.345Z,102069.54
2018-12-31T03:43:37.933Z,102072.67
2018-12-31T03:46:25.835Z,102063.06
2018-12-31T03:49:13.049Z,102055.65
2018-12-31T03:55:08.404Z,102057.03
2018-12-31T03:57:55.817Z,102055.69
2018-12-31T04:00:43.092Z,102069.33
2018-12-31T04:03:30.455Z,102057.09
2018-12-31T04:06:18.049Z,102057.10
2018-12-31T04:09:05.572Z,102048.95
2018-12-31T04:11:53.139Z,102051.62
2018-12-31T04:14:40.488Z,102066.14
2018-12-31T04:17:28.895Z,102065.73
2018-12-31T04:20:16.801Z,102058.70
2018-12-31T04:23:04.420Z,102049.03
2018-12-31T04:25:51.782Z,102053.40
2018-12-31T04:28:39.489Z,102064.63
2018-12-31T04:31:26.837Z,102072.31
2018-12-31T04:34:13.924Z,102065.83
2018-12-31T04:37:01.199Z,102062.84
2018-12-31T04:39:48.877Z,102057.66
2018-12-31T04:42:35.868Z,102055.55
2018-12-31T04:48:32.717Z,102060.05
2018-12-31T04:51:20.027Z,102064.47
2018-12-31T04:54:07.186Z,102052.20
2018-12-31T04:56:56.110Z,102060.13
2018-12-31T04:59:43.095Z,102055.46
2018-12-31T05:02:30.541Z,102060.80
2018-12-31T05:05:17.894Z,102064.36
2018-12-31T05:08:05.278Z,102066.16
2018-12-31T05:10:52.433Z,102075.83
2018-12-31T05:13:39.670Z,102081.09
2018-12-31T05:16:26.870Z,102086.40
2018-12-31T05:19:14.089Z,102089.94
2018-12-31T05:22:01.187Z,102091.70
2018-12-31T05:24:48.662Z,102087.78
2018-12-31T05:27:36.192Z,102081.78
2018-12-31T05:30:23.575Z,102084.95
2018-12-31T05:33:11.299Z,102085.02
2018-12-31T05:35:58.599Z,102089.48
2018-12-31T05:38:46.655Z,102086.45
2018-12-31T05:41:34.176Z,102092.19
2018-12-31T05:44:21.699Z,102100.22
2018-12-31T05:47:09.334Z,102096.03
2018-12-31T05:49:56.513Z,102089.98
2018-12-31T05:52:43.737Z,102092.22
2018-12-31T05:55:31.185Z,102088.78
2018-12-31T05:58:18.804Z,102090.11
2018-12-31T06:01:06.223Z,102101.19
2018-12-31T06:03:53.318Z,102101.27
2018-12-31T06:06:40.787Z,102098.66
2018-12-31T06:09:27.966Z,102093.88
2018-12-31T06:12:15.590Z,102099.84
2018-12-31T06:15:03.033Z,102102.69
2018-12-31T06:17:50.631Z,102102.84
2018-12-31T06:20:38.095Z,102104.66
2018-12-31T06:23:25.565Z,102096.78
2018-12-31T06:26:14.270Z,102092.56
2018-12-31T06:29:01.705Z,102097.20
2018-12-31T06:34:56.626Z,102101.78
2018-12-31T06:37:44.119Z,102100.09
2018-12-31T06:40:31.921Z,102107.15
2018-12-31T06:43:19.066Z,102116.38
2018-12-31T06:46:22.032Z,102118.61
2018-12-31T06:49:09.386Z,102137.96
2018-12-31T06:51:56.791Z,102146.28
2018-12-31T06:54:44.152Z,102157.67
2018-12-31T06:57:31.329Z,102163.03
2018-12-31T07:00:18.715Z,102171.73
2018-12-31T07:03:06.236Z,102179.76
2018-12-31T07:05:53.789Z,102160.98
2018-12-31T07:08:41.081Z,102167.58
2018-12-31T07:11:28.546Z,102164.69
2018-12-31T07:14:16.072Z,102162.58
2018-12-31T07:17:03.267Z,102157.53
2018-12-31T07:19:50.405Z,102147.53
2018-12-31T07:22:38.034Z,102137.97
2018-12-31T07:25:25.677Z,102135.89
2018-12-31T07:28:12.828Z,102136.21
2018-12-31T07:30:59.961Z,102134.11
2018-12-31T07:33:47.119Z,102137.25
2018-12-31T07:36:35.369Z,102136.25
2018-12-31T07:39:24.206Z,102136.89
2018-12-31T07:42:13.893Z,102143.67
2018-12-31T07:45:01.107Z,102150.91
2018-12-31T07:47:48.533Z,102157.56
2018-12-31T07:50:38.879Z,102166.14
2018-12-31T07:53:26.042Z,102176.46
2018-12-31T07:56:13.401Z,102171.30
2018-12-31T07:59:00.739Z,102159.50
2018-12-31T08:01:47.949Z,102165.67
2018-12-31T08:04:35.317Z,102165.28
2018-12-31T08:07:23.664Z,102170.56
2018-12-31T08:10:11.063Z,102165.73
2018-12-31T08:12:58.203Z,102183.30
2018-12-31T08:15:45.256Z,102189.87
2018-12-31T08:18:32.984Z,102181.52
2018-12-31T08:21:20.299Z,102169.20
2018-12-31T08:24:07.788Z,102187.66
2018-12-31T08:26:54.966Z,102186.97
2018-12-31T08:29:42.395Z,102176.91
2018-12-31T08:32:29.514Z,102179.53
2018-12-31T08:35:16.531Z,102181.75
2018-12-31T08:38:03.816Z,102185.27
2018-12-31T08:40:50.898Z,102192.72
2018-12-31T08:43:40.841Z,102193.17
2018-12-31T08:46:28.054Z,102185.27
2018-12-31T08:49:15.425Z,102180.84
2018-12-31T08:52:02.823Z,102182.56
2018-12-31T08:54:50.435Z,102185.19
2018-12-31T08:57:38.874Z,102181.58
2018-12-31T09:00:28.104Z,102176.22
2018-12-31T09:03:16.074Z,102185.89
2018-12-31T09:06:04.461Z,102177.48
2018-12-31T09:08:51.987Z,102184.73
2018-12-31T09:11:39.567Z,102191.54
2018-12-31T09:14:27.080Z,102193.41
2018-12-31T09:17:15.212Z,102190.05
2018-12-31T09:23:14.713Z,102183.46
2018-12-31T09:29:09.574Z,102173.83
2018-12-31T09:31:56.983Z,102176.67
2018-12-31T09:34:44.634Z,102164.31
2018-12-31T09:37:32.095Z,102172.13
2018-12-31T09:40:24.819Z,102180.75
2018-12-31T09:43:12.387Z,102180.36
2018-12-31T09:45:59.839Z,102183.90
2018-12-31T09:48:47.357Z,102180.34
2018-12-31T09:51:34.652Z,102177.24
2018-12-31T09:54:21.911Z,102169.28
2018-12-31T09:57:09.598Z,102167.87
2018-12-31T10:03:02.759Z,102165.16
2018-12-31T10:05:50.328Z,102168.61
2018-12-31T10:08:37.657Z,102169.01
2018-12-31T10:11:24.894Z,102167.66
2018-12-31T10:14:12.344Z,102166.30
2018-12-31T10:16:59.533Z,102163.56
2018-12-31T10:19:47.065Z,102167.52
2018-12-31T10:22:34.094Z,102164.94
2018-12-31T10:25:30.055Z,102163.25
2018-12-31T10:28:17.409Z,102152.61
2018-12-31T10:31:04.593Z,102148.16
2018-12-31T10:33:51.727Z,102145.80
2018-12-31T10:36:39.174Z,102146.97
2018-12-31T10:39:26.291Z,102136.26
2018-12-31T10:42:13.986Z,102132.15
2018-12-31T10:45:01.506Z,102128.89
2018-12-31T10:47:49.191Z,102131.73
2018-12-31T10:50:36.531Z,102134.69
2018-12-31T10:53:24.040Z,102126.17
2018-12-31T10:56:13.268Z,102122.57
2018-12-31T10:59:00.446Z,102119.89
2018-12-31T11:01:55.404Z,102121.72
2018-12-31T11:04:48.173Z,102115.47
2018-12-31T11:07:36.308Z,102108.72
2018-12-31T11:10:24.553Z,102109.02
2018-12-31T11:16:19.576Z,102110.01
2018-12-31T11:19:08.155Z,102114.69
2018-12-31T11:21:55.677Z,102109.82
2018-12-31T11:24:42.953Z,102105.05
2018-12-31T11:27:31.724Z,102101.09
2018-12-31T11:30:22.044Z,102102.77
2018-12-31T11:33:09.690Z,102095.67
2018-12-31T11:39:04.241Z,102083.31
2018-12-31T11:41:54.130Z,102086.42
2018-12-31T11:44:41.607Z,102087.80
2018-12-31T11:47:30.690Z,102089.80
2018-12-31T11:50:18.150Z,102095.45
2018-12-31T11:53:05.292Z,102095.56
2018-12-31T11:56:06.234Z,102100.27
2018-12-31T11:58:54.778Z,102092.00
2018-12-31T12:01:42.207Z,102094.80
2018-12-31T12:04:30.201Z,102098.48
2018-12-31T12:07:17.690Z,102100.87
2018-12-31T12:10:07.308Z,102092.19
2018-12-31T12:12:52.224Z,102090.47
2018-12-31T12:15:41.617Z,102087.45
2018-12-31T12:18:30.574Z,102089.30
2018-12-31T12:21:19.622Z,102085.42
2018-12-31T12:24:07.488Z,102081.81
2018-12-31T12:26:55.122Z,102075.13
2018-12-31T12:29:44.055Z,102069.34
2018-12-31T12:32:31.463Z,102073.64
2018-12-31T12:35:18.913Z,102075.30
2018-12-31T12:38:06.246Z,102074.42
2018-12-31T12:41:01.605Z,102071.36
2018-12-31T12:43:49.152Z,102084.13
2018-12-31T12:46:37.395Z,102083.91
2018-12-31T12:49:32.574Z,102081.75
2018-12-31T12:52:20.325Z,102070.41
2018-12-31T12:55:07.567Z,102064.27
2018-12-31T12:57:55.273Z,102059.41
2018-12-31T13:00:42.673Z,102062.41
2018-12-31T13:03:29.995Z,102062.70
2018-12-31T13:06:17.450Z,102062.16
2018-12-31T13:09:09.474Z,102067.96
2018-12-31T13:11:58.546Z,102076.66
2018-12-31T13:14:46.073Z,102077.85
2018-12-31T13:17:34.928Z,102074.69
2018-12-31T13:23:31.578Z,102078.42
2018-12-31T13:26:19.466Z,102074.81
2018-12-31T13:29:06.968Z,102075.15
2018-12-31T13:31:54.418Z,102079.47
2018-12-31T13:34:41.989Z,102085.36
2018-12-31T13:37:31.610Z,102089.00
2018-12-31T13:40:19.843Z,102086.09
2018-12-31T13:46:14.357Z,102080.27
2018-12-31T13:49:02.865Z,102080.59
2018-12-31T13:51:50.378Z,102075.34
2018-12-31T13:54:38.042Z,102081.39
2018-12-31T14:00:32.220Z,102088.24
2018-12-31T14:03:20.587Z,102098.28
2018-12-31T14:12:21.306Z,102110.48
2018-12-31T14:15:12.754Z,102112.60
2018-12-31T14:18:02.566Z,102104.89
2018-12-31T14:20:52.345Z,102109.01
2018-12-31T14:23:39.783Z,102102.45
2018-12-31T14:26:31.134Z,102092.95
2018-12-31T14:29:19.327Z,102105.34
2018-12-31T14:32:07.178Z,102101.87
2018-12-31T14:34:56.698Z,102103.22
2018-12-31T14:37:43.921Z,102099.77
2018-12-31T14:40:33.179Z,102107.73
2018-12-31T14:43:23.763Z,102110.80
2018-12-31T14:46:14.974Z,102113.94
2018-12-31T14:49:05.329Z,102117.49
2018-12-31T14:55:05.595Z,102109.66
2018-12-31T14:57:55.883Z,102107.50
2018-12-31T15:00:44.205Z,102098.73
2018-12-31T15:03:38.890Z,102102.23
2018-12-31T15:06:30.326Z,102103.16
2018-12-31T15:09:17.696Z,102106.72
2018-12-31T15:12:16.836Z,102104.57
2018-12-31T15:15:04.903Z,102101.55
2018-12-31T15:18:02.265Z,102101.52
2018-12-31T15:20:53.780Z,102105.51
2018-12-31T15:23:41.316Z,102109.00
2018-12-31T15:26:29.683Z,102108.53
2018-12-31T15:29:17.250Z,102100.14
2018-12-31T15:32:05.576Z,102098.84
2018-12-31T15:34:53.105Z,102095.38
2018-12-31T15:37:40.889Z,102093.18
2018-12-31T15:43:34.769Z,102097.25
2018-12-31T15:46:24.036Z,102091.11
2018-12-31T15:49:12.016Z,102097.21
2018-12-31T15:51:59.513Z,102097.72
2018-12-31T15:54:51.616Z,102094.85
2018-12-31T15:57:38.907Z,102091.45
2018-12-31T16:00:25.846Z,102086.74
2018-12-31T16:03:13.671Z,102093.00
2018-12-31T16:06:01.367Z,102095.31
2018-12-31T16:08:54.930Z,102091.86
2018-12-31T16:11:42.355Z,102092.33
2018-12-31T16:14:29.801Z,102094.59
2018-12-31T16:17:18.904Z,102088.09
2018-12-31T16:20:06.571Z,102083.22
2018-12-31T16:22:54.040Z,102078.42
2018-12-31T16:25:42.485Z,102075.84
2018-12-31T16:28:30.349Z,102080.94
2018-12-31T16:31:18.049Z,102078.09
2018-12-31T16:34:12.950Z,102071.56
2018-12-31T16:37:01.349Z,102064.16
2018-12-31T16:39:48.658Z,102069.00
2018-12-31T16:42:35.813Z,102064.17
2018-12-31T16:45:40.839Z,102070.39
2018-12-31T16:48:28.164Z,102062.91
2018-12-31T16:51:16.075Z,102070.41
2018-12-31T16:54:05.671Z,102073.02
2018-12-31T16:56:52.603Z,102064.64
2018-12-31T16:59:39.842Z,102067.87
2018-12-31T17:02:28.145Z,102068.19
2018-12-31T17:05:15.627Z,102063.38
2018-12-31T17:08:02.870Z,102062.36
2018-12-31T17:10:50.682Z,102069.56
2018-12-31T17:13:38.382Z,102057.34
2018-12-31T17:16:25.497Z,102061.75
2018-12-31T17:19:13.293Z,102067.25
2018-12-31T17:22:01.632Z,102066.50
2018-12-31T17:24:51.310Z,102063.46
2018-12-31T17:27:39.153Z,102067.91
2018-12-31T17:30:28.773Z,102074.11
2018-12-31T17:33:17.273Z,102073.66
2018-12-31T17:39:11.338Z,102073.79
2018-12-31T17:41:58.847Z,102079.97
2018-12-31T17:44:46.272Z,102079.11
2018-12-31T17:47:33.566Z,102072.08
2018-12-31T17:50:21.372Z,102074.71
2018-12-31T17:53:27.274Z,102072.94
2018-12-31T17:56:15.501Z,102068.98
2018-12-31T17:59:02.683Z,102073.38
2018-12-31T18:01:50.461Z,102069.45
2018-12-31T18:04:37.903Z,102066.92
2018-12-31T18:07:25.705Z,102067.19
2018-12-31T18:10:13.652Z,102065.27
2018-12-31T18:13:01.049Z,102065.83
2018-12-31T18:15:49.222Z,102055.20
2018-12-31T18:18:36.592Z,102049.94
2018-12-31T18:21:26.837Z,102050.55
2018-12-31T18:24:15.387Z,102047.42
2018-12-31T18:27:03.424Z,102050.16
2018-12-31T18:29:50.947Z,102056.82
2018-12-31T18:32:38.346Z,102051.00
2018-12-31T18:35:25.545Z,102061.72
2018-12-31T18:38:12.972Z,102054.42
2018-12-31T18:41:00.521Z,102056.20
2018-12-31T18:43:48.861Z,102056.16
2018-12-31T18:46:37.383Z,102059.08
2018-12-31T18:49:24.915Z,102051.23
2018-12-31T18:52:12.068Z,102057.35
2018-12-31T18:55:01.821Z,102063.31
2018-12-31T18:57:49.373Z,102066.09
2018-12-31T19:00:36.795Z,102067.09
2018-12-31T19:03:24.861Z,102059.63
2018-12-31T19:06:12.553Z,102065.85
2018-12-31T19:09:00.046Z,102066.31
2018-12-31T19:14:53.534Z,102065.89
2018-12-31T19:20:49.449Z,102063.45
2018-12-31T19:23:37.693Z,102052.98
2018-12-31T19:26:28.806Z,102053.29
2018-12-31T19:32:22.433Z,102053.97
2018-12-31T19:35:10.819Z,102061.77
2018-12-31T19:37:58.986Z,102063.31
2018-12-31T19:40:48.771Z,102060.81
2018-12-31T19:43:37.144Z,102056.80
2018-12-31T19:46:24.348Z,102062.93
2018-12-31T19:49:13.638Z,102058.80
2018-12-31T19:52:00.977Z,102051.41
2018-12-31T19:54:48.456Z,102047.49
2018-12-31T19:57:36.167Z,102042.27
2018-12-31T20:03:32.636Z,102041.09
2018-12-31T20:06:20.514Z,102043.72
2018-12-31T20:09:08.433Z,102041.92
2018-12-31T20:11:56.444Z,102043.16
2018-12-31T20:14:44.915Z,102043.42
2018-12-31T20:17:32.208Z,102038.06
2018-12-31T20:20:19.937Z,102033.74
2018-12-31T20:23:06.995Z,102031.88
2018-12-31T20:25:54.296Z,102034.50
2018-12-31T20:28:41.817Z,102031.44
2018-12-31T20:31:29.142Z,102041.94
2018-12-31T20:34:17.587Z,102037.28
2018-12-31T20:37:04.746Z,102039.14
2018-12-31T20:39:52.129Z,102036.59
2018-12-31T20:42:39.340Z,102033.17
2018-12-31T20:45:27.682Z,102037.23
2018-12-31T20:48:15.282Z,102029.39
2018-12-31T20:51:02.411Z,102031.22
2018-12-31T20:53:49.844Z,102035.73
2018-12-31T20:56:37.258Z,102027.80
2018-12-31T20:59:24.710Z,102026.39
2018-12-31T21:02:12.031Z,102015.66
2018-12-31T21:04:59.884Z,102007.47
2018-12-31T21:07:47.558Z,102017.25
2018-12-31T21:10:34.837Z,102015.14
2018-12-31T21:13:21.687Z,102009.41
2018-12-31T21:16:09.788Z,102004.94
2018-12-31T21:18:57.926Z,102006.81
2018-12-31T21:21:45.409Z,102001.80
2018-12-31T21:24:38.281Z,102002.81
2018-12-31T21:27:41.341Z,101995.92
2018-12-31T21:30:28.533Z,101994.66
2018-12-31T21:33:15.955Z,101994.29
2018-12-31T21:36:03.279Z,101987.30
2018-12-31T21:38:50.906Z,101976.80
2018-12-31T21:41:38.223Z,101978.16
2018-12-31T21:44:25.457Z,101976.41
2018-12-31T21:47:13.059Z,101977.67
2018-12-31T21:50:00.583Z,101973.75
2018-12-31T21:52:49.098Z,101975.70
2018-12-31T21:55:36.886Z,101972.29
2018-12-31T21:58:24.257Z,101968.45
2018-12-31T22:01:11.525Z,101966.72
2018-12-31T22:03:58.989Z,101966.33
2018-12-31T22:06:53.997Z,101960.16
2018-12-31T22:09:41.581Z,101955.31
2018-12-31T22:12:28.889Z,101951.80
2018-12-31T22:15:16.221Z,101941.16
2018-12-31T22:18:03.838Z,101936.09
2018-12-31T22:20:51.078Z,101931.84
2018-12-31T22:23:38.477Z,101927.73
2018-12-31T22:26:25.999Z,101926.98
2018-12-31T22:29:13.219Z,101930.22
2018-12-31T22:32:00.742Z,101921.95
2018-12-31T22:34:48.369Z,101925.09
2018-12-31T22:37:35.674Z,101927.29
2018-12-31T22:40:23.845Z,101915.45
2018-12-31T22:43:11.190Z,101915.48
2018-12-31T22:45:58.377Z,101915.06
2018-12-31T22:48:45.745Z,101918.22
2018-12-31T22:51:34.485Z,101901.93
2018-12-31T22:54:24.250Z,101900.63
2018-12-31T22:57:11.619Z,101891.94
2018-12-31T23:00:00.152Z,101880.47
2018-12-31T23:02:47.595Z,101884.03
2018-12-31T23:05:35.132Z,101876.08
2018-12-31T23:11:29.781Z,101887.11
2018-12-31T23:14:18.026Z,101876.47
2018-12-31T23:17:05.719Z,101869.87
2018-12-31T23:19:53.185Z,101865.95
2018-12-31T23:22:40.537Z,101864.59
2018-12-31T23:25:27.561Z,101850.05
2018-12-31T23:28:14.730Z,101851.61
2018-12-31T23:31:02.002Z,101848.27
2018-12-31T23:33:49.078Z,101847.61
2018-12-31T23:36:36.237Z,101849.72
2018-12-31T23:39:23.743Z,101851.76
2018-12-31T23:42:19.214Z,101841.19
2018-12-31T23:45:06.180Z,101834.56
2018-12-31T23:47:53.950Z,101831.38
2018-12-31T23:50:41.339Z,101827.59
2018-12-31T23:53:44.254Z,101827.72
2018-12-31T23:56:31.730Z,101822.14
